TimeHST,TemperatureF,Dew PointF,Humidity,Sea Level PressureIn,VisibilityMPH,Wind Direction,Wind SpeedMPH,Gust SpeedMPH,PrecipitationIn,Events,Conditions,WindDirDegrees,DateUTC
12:57 AM,77.0,69.1,76,30.12,10.0,ENE,6.9,-,N/A,,Overcast,70,2012-10-13 10:57:00
1:57 AM,77.0,69.1,76,30.11,10.0,East,8.1,16.1,N/A,,Mostly Cloudy,80,2012-10-13 11:57:00
2:05 AM,77.0,68.0,74,30.12,6.2,East,6.9,-,N/A,,Scattered Clouds,80,2012-10-13 12:05:00
2:57 AM,77.0,68.0,74,30.10,10.0,East,6.9,-,N/A,,Clear,80,2012-10-13 12:57:00
3:44 AM,-9999,-9999,N/A,30.10,6.2,East,8.1,-,N/A,,Mostly Cloudy,80,2012-10-13 13:44:00
3:57 AM,75.2,69.1,81,30.09,10.0,East,6.9,-,N/A,,Scattered Clouds,90,2012-10-13 13:57:00
4:57 AM,75.2,69.1,81,30.10,10.0,East,9.2,-,N/A,,Mostly Cloudy,80,2012-10-13 14:57:00
5:05 AM,75.2,69.8,83,30.11,10.0,East,9.2,-,N/A,,Mostly Cloudy,80,2012-10-13 15:05:00
5:57 AM,75.2,69.1,81,30.11,10.0,ENE,6.9,-,N/A,,Mostly Cloudy,70,2012-10-13 15:57:00
6:04 AM,75.2,69.8,83,30.12,6.2,East,4.6,-,N/A,,Scattered Clouds,90,2012-10-13 16:04:00
6:57 AM,75.2,69.1,81,30.12,10.0,ENE,6.9,-,N/A,,Mostly Cloudy,70,2012-10-13 16:57:00
7:57 AM,75.2,70.0,84,30.14,10.0,ENE,8.1,-,N/A,,Overcast,60,2012-10-13 17:57:00
8:15 AM,75.2,69.8,83,30.16,6.2,ENE,9.2,-,N/A,,Overcast,60,2012-10-13 18:15:00
8:57 AM,75.2,70.0,84,30.15,10.0,NE,10.4,16.1,0.00,,Overcast,50,2012-10-13 18:57:00
9:57 AM,79.5,72.9,80,30.16,10.0,ENE,10.4,-,N/A,,Mostly Cloudy,60,2012-10-13 19:57:00
10:57 AM,79.9,73.9,82,30.15,10.0,NE,8.1,-,N/A,,Scattered Clouds,40,2012-10-13 20:57:00
11:57 AM,81.0,71.1,72,30.13,10.0,NE,8.1,-,0.00,Rain,Light Rain,40,2012-10-13 21:57:00
12:16 PM,80.6,71.6,74,30.13,6.2,NE,10.4,-,0.00,Rain,Light Rain,50,2012-10-13 22:16:00
12:57 PM,81.1,72.3,74,30.11,10.0,ENE,6.9,-,0.00,,Overcast,70,2012-10-13 22:57:00
1:57 PM,79.5,72.3,79,30.10,10.0,NE,6.9,-,N/A,,Mostly Cloudy,40,2012-10-13 23:57:00
2:57 PM,81.1,74.1,79,30.09,10.0,NE,8.1,-,N/A,,Scattered Clouds,50,2012-10-14 00:57:00
3:57 PM,81.0,72.5,75,30.09,10.0,ENE,8.1,-,N/A,,Mostly Cloudy,60,2012-10-14 01:57:00
4:57 PM,81.1,71.1,71,30.09,10.0,NE,10.4,-,N/A,,Mostly Cloudy,50,2012-10-14 02:57:00
5:57 PM,78.8,72.0,79,30.10,10.0,ENE,6.9,-,N/A,,Overcast,70,2012-10-14 03:57:00
6:57 PM,78.8,73.0,82,30.12,10.0,ENE,9.2,-,0.00,,Scattered Clouds,70,2012-10-14 04:57:00
7:57 PM,77.0,69.8,78,30.14,10.0,ENE,6.9,-,N/A,,Scattered Clouds,60,2012-10-14 05:57:00
8:57 PM,77.0,71.6,83,30.15,10.0,ENE,9.2,16.1,N/A,,Scattered Clouds,70,2012-10-14 06:57:00
9:09 PM,-9999,-9999,N/A,30.17,6.2,ENE,8.1,-,N/A,,Mostly Cloudy,60,2012-10-14 07:09:00
9:23 PM,77.0,71.6,83,30.17,6.2,ENE,9.2,17.3,N/A,,Scattered Clouds,70,2012-10-14 07:23:00
9:57 PM,77.0,72.0,84,30.16,10.0,ENE,6.9,-,N/A,,Scattered Clouds,70,2012-10-14 07:57:00
10:57 PM,75.2,71.6,89,30.16,10.0,ENE,8.1,-,N/A,,Mostly Cloudy,70,2012-10-14 08:57:00
11:57 PM,75.2,72.0,90,30.15,10.0,ENE,8.1,-,0.00,Rain,Light Rain,70,2012-10-14 09:57:00